Time;durP1;ratioP1;P1;durP2;ratioP2;P2;SDS_P1;SDS_P2;PMS_P1;PMS_P2;Temp;Humidity;BMP_temperature;BMP_pressure;BME280_temperature;BME280_humidity;BME280_pressure;Samples;Min_cycle;Max_cycle;Signal;HPM_P1;HPM_P2
2019/06/19 00:00:30;;;;;;;3.15;2.65;;;;;;;19.81;58.375;94998.89;;;;
2019/06/19 00:01:32;;;;;;;3.15;2.65;;;;;;;19.81;58.375;94998.89;;;;
2019/06/19 00:02:33;;;;;;;3.15;2.65;;;;;;;19.81;58.375;94998.89;;;;
2019/06/19 00:03:34;;;;;;;2.65;2.45;;;;;;;19.66;58.50977;94976.43;;;;
2019/06/19 00:04:35;;;;;;;2.65;2.45;;;;;;;19.66;58.50977;94976.43;;;;
2019/06/19 00:05:36;;;;;;;2.65;2.45;;;;;;;19.66;58.50977;94976.43;;;;
2019/06/19 00:06:37;;;;;;;2.65;2.45;;;;;;;19.66;58.50977;94976.43;;;;
2019/06/19 00:07:38;;;;;;;2.65;2.45;;;;;;;19.66;58.50977;94976.43;;;;
2019/06/19 00:08:39;;;;;;;2.65;2.45;;;;;;;19.66;58.50977;94976.43;;;;
2019/06/19 00:09:40;;;;;;;2.65;2.45;;;;;;;19.66;58.50977;94976.43;;;;
2019/06/19 00:10:42;;;;;;;2.65;2.45;;;;;;;19.66;58.50977;94976.43;;;;
2019/06/19 00:11:43;;;;;;;2.65;2.45;;;;;;;19.66;58.50977;94976.43;;;;
2019/06/19 00:12:44;;;;;;;2.65;2.45;;;;;;;19.66;58.50977;94976.43;;;;
2019/06/19 00:13:45;;;;;;;3.05;2.75;;;;;;;19.55;58.80176;94960.72;;;;
2019/06/19 00:14:46;;;;;;;3.05;2.75;;;;;;;19.55;58.80176;94960.72;;;;
2019/06/19 00:15:47;;;;;;;3.05;2.75;;;;;;;19.55;58.80176;94960.72;;;;
2019/06/19 00:16:48;;;;;;;3.05;2.75;;;;;;;19.55;58.80176;94960.72;;;;
2019/06/19 00:17:49;;;;;;;3.05;2.75;;;;;;;19.55;58.80176;94960.72;;;;
2019/06/19 00:18:50;;;;;;;3.05;2.75;;;;;;;19.55;58.80176;94960.72;;;;
2019/06/19 00:19:51;;;;;;;3.05;2.75;;;;;;;19.55;58.80176;94960.72;;;;
2019/06/19 00:20:52;;;;;;;3.05;2.75;;;;;;;19.55;58.80176;94960.72;;;;
2019/06/19 00:21:53;;;;;;;3.05;2.75;;;;;;;19.55;58.80176;94960.72;;;;
2019/06/19 00:22:54;;;;;;;3.05;2.75;;;;;;;19.55;58.80176;94960.72;;;;
2019/06/19 00:23:55;;;;;;;3.05;2.75;;;;;;;19.55;58.80176;94960.72;;;;
2019/06/19 00:24:56;;;;;;;2.900001;2.7;;;;;;;19.4;59.29688;94957.4;;;;
2019/06/19 00:25:57;;;;;;;2.900001;2.7;;;;;;;19.4;59.29688;94957.4;;;;
2019/06/19 00:26:58;;;;;;;2.900001;2.7;;;;;;;19.4;59.29688;94957.4;;;;
2019/06/19 00:27:59;;;;;;;2.900001;2.7;;;;;;;19.4;59.29688;94957.4;;;;
2019/06/19 00:29:01;;;;;;;2.900001;2.7;;;;;;;19.4;59.29688;94957.4;;;;
2019/06/19 00:30:02;;;;;;;2.900001;2.7;;;;;;;19.4;59.29688;94957.4;;;;
2019/06/19 00:31:03;;;;;;;2.900001;2.7;;;;;;;19.4;59.29688;94957.4;;;;
2019/06/19 00:32:04;;;;;;;2.900001;2.7;;;;;;;19.4;59.29688;94957.4;;;;
2019/06/19 00:33:05;;;;;;;2.900001;2.7;;;;;;;19.4;59.29688;94957.4;;;;
2019/06/19 00:34:06;;;;;;;2.900001;2.7;;;;;;;19.4;59.29688;94957.4;;;;
2019/06/19 00:35:07;;;;;;;2.900001;2.7;;;;;;;19.4;59.29688;94957.4;;;;
2019/06/19 00:36:08;;;;;;;2.900001;2.7;;;;;;;19.4;59.29688;94957.4;;;;
2019/06/19 00:37:10;;;;;;;2.900001;2.7;;;;;;;19.4;59.29688;94957.4;;;;
2019/06/19 00:38:11;;;;;;;2.900001;2.7;;;;;;;19.4;59.29688;94957.4;;;;
2019/06/19 00:39:12;;;;;;;2.900001;2.7;;;;;;;19.4;59.29688;94957.4;;;;
2019/06/19 00:40:13;;;;;;;2.900001;2.7;;;;;;;19.4;59.29688;94957.4;;;;
2019/06/19 00:41:15;;;;;;;2.900001;2.7;;;;;;;19.4;59.29688;94957.4;;;;
2019/06/19 00:42:16;;;;;;;2.900001;2.7;;;;;;;19.4;59.29688;94957.4;;;;
2019/06/19 00:43:17;;;;;;;2.900001;2.7;;;;;;;19.4;59.29688;94957.4;;;;
2019/06/19 00:44:18;;;;;;;2.900001;2.7;;;;;;;19.4;59.29688;94957.4;;;;
2019/06/19 00:45:19;;;;;;;2.900001;2.7;;;;;;;19.4;59.29688;94957.4;;;;
2019/06/19 00:46:20;;;;;;;3.2;2.900001;;;;;;;19.17;60.19824;94959.53;;;;
2019/06/19 00:47:21;;;;;;;3.2;2.900001;;;;;;;19.17;60.19824;94959.53;;;;
2019/06/19 00:48:22;;;;;;;3.2;2.900001;;;;;;;19.17;60.19824;94959.53;;;;
2019/06/19 00:49:23;;;;;;;3.2;2.900001;;;;;;;19.17;60.19824;94959.53;;;;
2019/06/19 00:50:24;;;;;;;3.2;2.900001;;;;;;;19.17;60.19824;94959.53;;;;
2019/06/19 00:51:25;;;;;;;3.2;2.900001;;;;;;;19.17;60.19824;94959.53;;;;
2019/06/19 00:52:26;;;;;;;3.2;2.900001;;;;;;;19.17;60.19824;94959.53;;;;
2019/06/19 00:53:27;;;;;;;3.2;2.900001;;;;;;;19.17;60.19824;94959.53;;;;
2019/06/19 00:54:30;;;;;;;3.2;2.900001;;;;;;;19.17;60.19824;94959.53;;;;
2019/06/19 00:59:04;;;;;;;3.7;3.3;;;;;;;19.08;60.52734;94952.14;;;;
2019/06/19 01:00:05;;;;;;;3.7;3.3;;;;;;;19.08;60.52734;94952.14;;;;
2019/06/19 01:01:06;;;;;;;3.7;3.3;;;;;;;19.08;60.52734;94952.14;;;;
2019/06/19 01:02:07;;;;;;;3.7;3.3;;;;;;;19.08;60.52734;94952.14;;;;
2019/06/19 01:03:09;;;;;;;3.7;3.3;;;;;;;19.08;60.52734;94952.14;;;;
2019/06/19 01:04:10;;;;;;;3.7;3.3;;;;;;;19.08;60.52734;94952.14;;;;
2019/06/19 01:05:11;;;;;;;3.7;3.3;;;;;;;19.08;60.52734;94952.14;;;;
2019/06/19 01:06:12;;;;;;;3.7;3.3;;;;;;;19.08;60.52734;94952.14;;;;
2019/06/19 01:07:13;;;;;;;3.400001;3.1;;;;;;;18.88;61.03516;94940.12;;;;
2019/06/19 01:08:14;;;;;;;3.400001;3.1;;;;;;;18.88;61.03516;94940.12;;;;
2019/06/19 01:09:15;;;;;;;3.400001;3.1;;;;;;;18.88;61.03516;94940.12;;;;
2019/06/19 01:10:16;;;;;;;3.400001;3.1;;;;;;;18.88;61.03516;94940.12;;;;
2019/06/19 01:11:17;;;;;;;3.400001;3.1;;;;;;;18.88;61.03516;94940.12;;;;
2019/06/19 01:12:18;;;;;;;3.400001;3.1;;;;;;;18.88;61.03516;94940.12;;;;
2019/06/19 01:13:19;;;;;;;3.400001;3.1;;;;;;;18.88;61.03516;94940.12;;;;
2019/06/19 01:14:21;;;;;;;3.400001;3.1;;;;;;;18.88;61.03516;94940.12;;;;
2019/06/19 01:15:22;;;;;;;3.400001;3.1;;;;;;;18.88;61.03516;94940.12;;;;
2019/06/19 01:16:23;;;;;;;3.400001;3.1;;;;;;;18.88;61.03516;94940.12;;;;
2019/06/19 01:17:24;;;;;;;3.55;2.95;;;;;;;18.64;61.76855;94939.36;;;;
2019/06/19 01:18:25;;;;;;;3.55;2.95;;;;;;;18.64;61.76855;94939.36;;;;
2019/06/19 01:19:26;;;;;;;3.55;2.95;;;;;;;18.64;61.76855;94939.36;;;;
2019/06/19 01:20:27;;;;;;;3.55;2.95;;;;;;;18.64;61.76855;94939.36;;;;
2019/06/19 01:21:28;;;;;;;3.55;2.95;;;;;;;18.64;61.76855;94939.36;;;;
2019/06/19 01:22:29;;;;;;;3.55;2.95;;;;;;;18.64;61.76855;94939.36;;;;
2019/06/19 01:23:30;;;;;;;3.55;2.95;;;;;;;18.64;61.76855;94939.36;;;;
2019/06/19 01:24:32;;;;;;;3.55;2.95;;;;;;;18.64;61.76855;94939.36;;;;
2019/06/19 01:25:33;;;;;;;3.55;2.95;;;;;;;18.64;61.76855;94939.36;;;;
2019/06/19 01:26:34;;;;;;;3.55;2.95;;;;;;;18.64;61.76855;94939.36;;;;
2019/06/19 01:27:35;;;;;;;3.55;2.95;;;;;;;18.64;61.76855;94939.36;;;;
2019/06/19 01:28:36;;;;;;;3.55;3.25;;;;;;;18.38;62.22461;94931.75;;;;
2019/06/19 01:29:37;;;;;;;3.55;3.25;;;;;;;18.38;62.22461;94931.75;;;;
2019/06/19 01:30:39;;;;;;;3.55;3.25;;;;;;;18.38;62.22461;94931.75;;;;
2019/06/19 01:31:40;;;;;;;3.55;3.25;;;;;;;18.38;62.22461;94931.75;;;;
2019/06/19 01:32:41;;;;;;;3.55;3.25;;;;;;;18.38;62.22461;94931.75;;;;
2019/06/19 01:33:42;;;;;;;3.55;3.25;;;;;;;18.38;62.22461;94931.75;;;;
2019/06/19 01:34:43;;;;;;;3.55;3.25;;;;;;;18.38;62.22461;94931.75;;;;
2019/06/19 01:35:44;;;;;;;3.55;3.25;;;;;;;18.38;62.22461;94931.75;;;;
2019/06/19 01:36:46;;;;;;;3.55;3.25;;;;;;;18.38;62.22461;94931.75;;;;
2019/06/19 01:37:47;;;;;;;3.55;3.25;;;;;;;18.38;62.22461;94931.75;;;;
2019/06/19 01:38:48;;;;;;;3.4;3;;;;;;;18.19;62.6582;94917.5;;;;
2019/06/19 01:39:49;;;;;;;3.4;3;;;;;;;18.19;62.6582;94917.5;;;;
2019/06/19 01:40:50;;;;;;;3.4;3;;;;;;;18.19;62.6582;94917.5;;;;
2019/06/19 01:41:51;;;;;;;3.4;3;;;;;;;18.19;62.6582;94917.5;;;;
2019/06/19 01:42:52;;;;;;;3.4;3;;;;;;;18.19;62.6582;94917.5;;;;
2019/06/19 01:43:53;;;;;;;3.4;3;;;;;;;18.19;62.6582;94917.5;;;;
2019/06/19 01:44:55;;;;;;;3.4;3;;;;;;;18.19;62.6582;94917.5;;;;
2019/06/19 01:45:56;;;;;;;3.4;3;;;;;;;18.19;62.6582;94917.5;;;;
2019/06/19 01:46:57;;;;;;;3.4;3;;;;;;;18.19;62.6582;94917.5;;;;
2019/06/19 01:47:58;;;;;;;3.4;3;;;;;;;18.19;62.6582;94917.5;;;;
2019/06/19 01:48:59;;;;;;;3.4;3;;;;;;;18.19;62.6582;94917.5;;;;
2019/06/19 01:50:00;;;;;;;4.5;2.9;;;;;;;18.02;62.81836;94911.7;;;;
2019/06/19 01:51:01;;;;;;;4.5;2.9;;;;;;;18.02;62.81836;94911.7;;;;
2019/06/19 01:52:03;;;;;;;4.5;2.9;;;;;;;18.02;62.81836;94911.7;;;;
2019/06/19 01:53:04;;;;;;;4.5;2.9;;;;;;;18.02;62.81836;94911.7;;;;
2019/06/19 01:58:12;;;;;;;4.5;2.9;;;;;;;18.02;62.81836;94911.7;;;;
2019/06/19 01:59:13;;;;;;;4.5;2.9;;;;;;;18.02;62.81836;94911.7;;;;
2019/06/19 02:00:14;;;;;;;4.5;2.9;;;;;;;18.02;62.81836;94911.7;;;;
2019/06/19 02:01:15;;;;;;;4.5;2.9;;;;;;;18.02;62.81836;94911.7;;;;
2019/06/19 02:02:16;;;;;;;4.5;2.9;;;;;;;18.02;62.81836;94911.7;;;;
2019/06/19 02:03:17;;;;;;;4.5;2.9;;;;;;;18.02;62.81836;94911.7;;;;
2019/06/19 02:04:19;;;;;;;4.5;2.9;;;;;;;18.02;62.81836;94911.7;;;;
2019/06/19 02:05:20;;;;;;;4.5;2.9;;;;;;;18.02;62.81836;94911.7;;;;
2019/06/19 02:06:21;;;;;;;4.5;2.9;;;;;;;18.02;62.81836;94911.7;;;;
2019/06/19 02:07:22;;;;;;;4.5;2.9;;;;;;;18.02;62.81836;94911.7;;;;
2019/06/19 02:08:23;;;;;;;4.5;2.9;;;;;;;18.02;62.81836;94911.7;;;;
2019/06/19 02:09:24;;;;;;;4.5;2.9;;;;;;;18.02;62.81836;94911.7;;;;
2019/06/19 02:10:25;;;;;;;3.299999;3;;;;;;;17.66;63.46582;94928.59;;;;
2019/06/19 02:11:27;;;;;;;3.299999;3;;;;;;;17.66;63.46582;94928.59;;;;
2019/06/19 02:12:28;;;;;;;3.299999;3;;;;;;;17.66;63.46582;94928.59;;;;
2019/06/19 02:13:29;;;;;;;3.299999;3;;;;;;;17.66;63.46582;94928.59;;;;
2019/06/19 02:14:30;;;;;;;3.299999;3;;;;;;;17.66;63.46582;94928.59;;;;
2019/06/19 02:15:31;;;;;;;3.299999;3;;;;;;;17.66;63.46582;94928.59;;;;
2019/06/19 02:16:32;;;;;;;3.299999;3;;;;;;;17.66;63.46582;94928.59;;;;
2019/06/19 02:17:34;;;;;;;3.299999;3;;;;;;;17.66;63.46582;94928.59;;;;
2019/06/19 02:18:35;;;;;;;3.299999;3;;;;;;;17.66;63.46582;94928.59;;;;
2019/06/19 02:19:36;;;;;;;3.299999;3;;;;;;;17.66;63.46582;94928.59;;;;
2019/06/19 02:20:37;;;;;;;3.299999;3;;;;;;;17.66;63.46582;94928.59;;;;
2019/06/19 02:21:38;;;;;;;4;3.05;;;;;;;17.47;64.12598;94908.59;;;;
2019/06/19 02:22:39;;;;;;;4;3.05;;;;;;;17.47;64.12598;94908.59;;;;
2019/06/19 02:23:40;;;;;;;4;3.05;;;;;;;17.47;64.12598;94908.59;;;;
2019/06/19 02:24:41;;;;;;;4;3.05;;;;;;;17.47;64.12598;94908.59;;;;
2019/06/19 02:25:43;;;;;;;4;3.05;;;;;;;17.47;64.12598;94908.59;;;;
2019/06/19 02:26:44;;;;;;;4;3.05;;;;;;;17.47;64.12598;94908.59;;;;
2019/06/19 02:27:45;;;;;;;4;3.05;;;;;;;17.47;64.12598;94908.59;;;;
2019/06/19 02:28:46;;;;;;;4;3.05;;;;;;;17.47;64.12598;94908.59;;;;
2019/06/19 02:29:47;;;;;;;4;3.05;;;;;;;17.47;64.12598;94908.59;;;;
2019/06/19 02:30:48;;;;;;;4;3.05;;;;;;;17.47;64.12598;94908.59;;;;
2019/06/19 02:31:49;;;;;;;3.9;3.35;;;;;;;17.33;64.44238;94914.56;;;;
2019/06/19 02:32:50;;;;;;;3.9;3.35;;;;;;;17.33;64.44238;94914.56;;;;
2019/06/19 02:33:51;;;;;;;3.9;3.35;;;;;;;17.33;64.44238;94914.56;;;;
2019/06/19 02:34:53;;;;;;;3.9;3.35;;;;;;;17.33;64.44238;94914.56;;;;
2019/06/19 02:35:54;;;;;;;3.9;3.35;;;;;;;17.33;64.44238;94914.56;;;;
2019/06/19 02:36:55;;;;;;;3.9;3.35;;;;;;;17.33;64.44238;94914.56;;;;
2019/06/19 02:37:56;;;;;;;3.9;3.35;;;;;;;17.33;64.44238;94914.56;;;;
2019/06/19 02:38:57;;;;;;;3.9;3.35;;;;;;;17.33;64.44238;94914.56;;;;
2019/06/19 02:39:58;;;;;;;3.9;3.35;;;;;;;17.33;64.44238;94914.56;;;;
2019/06/19 02:40:59;;;;;;;3.9;3.35;;;;;;;17.33;64.44238;94914.56;;;;
2019/06/19 02:42:00;;;;;;;3.25;2.95;;;;;;;17.28;65.02539;94914.48;;;;
2019/06/19 02:43:02;;;;;;;3.25;2.95;;;;;;;17.28;65.02539;94914.48;;;;
2019/06/19 02:44:03;;;;;;;3.25;2.95;;;;;;;17.28;65.02539;94914.48;;;;
2019/06/19 02:45:04;;;;;;;3.25;2.95;;;;;;;17.28;65.02539;94914.48;;;;
2019/06/19 02:46:05;;;;;;;3.25;2.95;;;;;;;17.28;65.02539;94914.48;;;;
2019/06/19 02:47:06;;;;;;;3.25;2.95;;;;;;;17.28;65.02539;94914.48;;;;
2019/06/19 02:48:08;;;;;;;3.25;2.95;;;;;;;17.28;65.02539;94914.48;;;;
2019/06/19 02:49:09;;;;;;;3.25;2.95;;;;;;;17.28;65.02539;94914.48;;;;
2019/06/19 02:50:10;;;;;;;3.25;2.95;;;;;;;17.28;65.02539;94914.48;;;;
2019/06/19 02:51:11;;;;;;;3.25;2.95;;;;;;;17.28;65.02539;94914.48;;;;
2019/06/19 02:52:12;;;;;;;3.25;2.95;;;;;;;17.28;65.02539;94914.48;;;;
2019/06/19 02:53:13;;;;;;;5.349999;3.25;;;;;;;17.15;65.41992;94904.63;;;;
2019/06/19 02:54:14;;;;;;;5.349999;3.25;;;;;;;17.15;65.41992;94904.63;;;;
2019/06/19 02:55:15;;;;;;;5.349999;3.25;;;;;;;17.15;65.41992;94904.63;;;;
2019/06/19 02:56:16;;;;;;;5.349999;3.25;;;;;;;17.15;65.41992;94904.63;;;;
2019/06/19 02:57:17;;;;;;;5.349999;3.25;;;;;;;17.15;65.41992;94904.63;;;;
2019/06/19 02:58:19;;;;;;;5.349999;3.25;;;;;;;17.15;65.41992;94904.63;;;;
2019/06/19 02:59:20;;;;;;;5.349999;3.25;;;;;;;17.15;65.41992;94904.63;;;;
2019/06/19 03:00:21;;;;;;;5.349999;3.25;;;;;;;17.15;65.41992;94904.63;;;;
2019/06/19 03:01:27;;;;;;;5.349999;3.25;;;;;;;17.15;65.41992;94904.63;;;;
2019/06/19 03:02:29;;;;;;;5.349999;3.25;;;;;;;17.15;65.41992;94904.63;;;;
2019/06/19 03:03:30;;;;;;;3.5;3.2;;;;;;;17.05;65.95996;94916.17;;;;
2019/06/19 03:04:31;;;;;;;3.5;3.2;;;;;;;17.05;65.95996;94916.17;;;;
2019/06/19 03:05:32;;;;;;;3.5;3.2;;;;;;;17.05;65.95996;94916.17;;;;
2019/06/19 03:06:33;;;;;;;3.5;3.2;;;;;;;17.05;65.95996;94916.17;;;;
2019/06/19 03:07:34;;;;;;;3.5;3.2;;;;;;;17.05;65.95996;94916.17;;;;
2019/06/19 03:08:35;;;;;;;3.5;3.2;;;;;;;17.05;65.95996;94916.17;;;;
2019/06/19 03:09:36;;;;;;;3.5;3.2;;;;;;;17.05;65.95996;94916.17;;;;
2019/06/19 03:10:37;;;;;;;3.5;3.2;;;;;;;17.05;65.95996;94916.17;;;;
2019/06/19 03:11:38;;;;;;;3.5;3.2;;;;;;;17.05;65.95996;94916.17;;;;
2019/06/19 03:12:39;;;;;;;3.5;3.2;;;;;;;17.05;65.95996;94916.17;;;;
2019/06/19 03:13:40;;;;;;;3.5;3.2;;;;;;;17.05;65.95996;94916.17;;;;
2019/06/19 03:14:41;;;;;;;3.299999;3;;;;;;;16.97;66.6543;94919.09;;;;
2019/06/19 03:15:42;;;;;;;3.299999;3;;;;;;;16.97;66.6543;94919.09;;;;
2019/06/19 03:16:43;;;;;;;3.299999;3;;;;;;;16.97;66.6543;94919.09;;;;
2019/06/19 03:17:44;;;;;;;3.299999;3;;;;;;;16.97;66.6543;94919.09;;;;
2019/06/19 03:18:46;;;;;;;3.299999;3;;;;;;;16.97;66.6543;94919.09;;;;
2019/06/19 03:19:47;;;;;;;3.299999;3;;;;;;;16.97;66.6543;94919.09;;;;
2019/06/19 03:20:48;;;;;;;3.299999;3;;;;;;;16.97;66.6543;94919.09;;;;
2019/06/19 03:21:49;;;;;;;3.299999;3;;;;;;;16.97;66.6543;94919.09;;;;
2019/06/19 03:22:50;;;;;;;3.299999;3;;;;;;;16.97;66.6543;94919.09;;;;
2019/06/19 03:23:51;;;;;;;3.299999;3;;;;;;;16.97;66.6543;94919.09;;;;
2019/06/19 03:24:52;;;;;;;7.799999;3.9;;;;;;;16.99;67.04004;94911.84;;;;
2019/06/19 03:25:53;;;;;;;7.799999;3.9;;;;;;;16.99;67.04004;94911.84;;;;
2019/06/19 03:26:54;;;;;;;7.799999;3.9;;;;;;;16.99;67.04004;94911.84;;;;
2019/06/19 03:27:55;;;;;;;7.799999;3.9;;;;;;;16.99;67.04004;94911.84;;;;
2019/06/19 03:28:56;;;;;;;7.799999;3.9;;;;;;;16.99;67.04004;94911.84;;;;
2019/06/19 03:29:57;;;;;;;7.799999;3.9;;;;;;;16.99;67.04004;94911.84;;;;
2019/06/19 03:30:58;;;;;;;7.799999;3.9;;;;;;;16.99;67.04004;94911.84;;;;
2019/06/19 03:31:59;;;;;;;7.799999;3.9;;;;;;;16.99;67.04004;94911.84;;;;
2019/06/19 03:33:00;;;;;;;7.799999;3.9;;;;;;;16.99;67.04004;94911.84;;;;
2019/06/19 03:34:02;;;;;;;7.799999;3.9;;;;;;;16.99;67.04004;94911.84;;;;
2019/06/19 03:35:03;;;;;;;3.6;3.35;;;;;;;16.94;67.39063;94917.35;;;;
2019/06/19 03:36:04;;;;;;;3.6;3.35;;;;;;;16.94;67.39063;94917.35;;;;
2019/06/19 03:37:05;;;;;;;3.6;3.35;;;;;;;16.94;67.39063;94917.35;;;;
2019/06/19 03:38:06;;;;;;;3.6;3.35;;;;;;;16.94;67.39063;94917.35;;;;
2019/06/19 03:39:07;;;;;;;3.6;3.35;;;;;;;16.94;67.39063;94917.35;;;;
2019/06/19 03:40:08;;;;;;;3.6;3.35;;;;;;;16.94;67.39063;94917.35;;;;
2019/06/19 03:41:09;;;;;;;3.6;3.35;;;;;;;16.94;67.39063;94917.35;;;;
2019/06/19 03:42:10;;;;;;;3.6;3.35;;;;;;;16.94;67.39063;94917.35;;;;
2019/06/19 03:43:11;;;;;;;3.6;3.35;;;;;;;16.94;67.39063;94917.35;;;;
2019/06/19 03:44:12;;;;;;;3.6;3.35;;;;;;;16.94;67.39063;94917.35;;;;
2019/06/19 03:45:13;;;;;;;3.6;3.35;;;;;;;16.94;67.39063;94917.35;;;;
2019/06/19 03:46:14;;;;;;;4.45;4.05;;;;;;;16.98;67.8418;94915.28;;;;
2019/06/19 03:47:15;;;;;;;4.45;4.05;;;;;;;16.98;67.8418;94915.28;;;;
2019/06/19 03:48:16;;;;;;;4.45;4.05;;;;;;;16.98;67.8418;94915.28;;;;
2019/06/19 03:49:17;;;;;;;4.45;4.05;;;;;;;16.98;67.8418;94915.28;;;;
2019/06/19 03:50:18;;;;;;;4.45;4.05;;;;;;;16.98;67.8418;94915.28;;;;
2019/06/19 03:51:19;;;;;;;4.45;4.05;;;;;;;16.98;67.8418;94915.28;;;;
2019/06/19 03:52:21;;;;;;;4.45;4.05;;;;;;;16.98;67.8418;94915.28;;;;
2019/06/19 03:53:22;;;;;;;4.45;4.05;;;;;;;16.98;67.8418;94915.28;;;;
2019/06/19 03:54:23;;;;;;;4.45;4.05;;;;;;;16.98;67.8418;94915.28;;;;
2019/06/19 03:55:24;;;;;;;4.45;4.05;;;;;;;16.98;67.8418;94915.28;;;;
2019/06/19 03:56:36;;;;;;;3.9;3.6;;;;;;;17;68.28125;94910.19;;;;
2019/06/19 03:57:37;;;;;;;3.9;3.6;;;;;;;17;68.28125;94910.19;;;;
2019/06/19 03:58:38;;;;;;;3.9;3.6;;;;;;;17;68.28125;94910.19;;;;
2019/06/19 03:59:39;;;;;;;3.9;3.6;;;;;;;17;68.28125;94910.19;;;;
2019/06/19 04:00:40;;;;;;;3.9;3.6;;;;;;;17;68.28125;94910.19;;;;
2019/06/19 04:01:41;;;;;;;3.9;3.6;;;;;;;17;68.28125;94910.19;;;;
2019/06/19 04:02:42;;;;;;;3.9;3.6;;;;;;;17;68.28125;94910.19;;;;
2019/06/19 04:03:43;;;;;;;3.9;3.6;;;;;;;17;68.28125;94910.19;;;;
2019/06/19 04:04:44;;;;;;;3.9;3.6;;;;;;;17;68.28125;94910.19;;;;
2019/06/19 04:05:45;;;;;;;3.9;3.6;;;;;;;17;68.28125;94910.19;;;;
2019/06/19 04:06:46;;;;;;;5.5;3.8;;;;;;;17.15;68.54395;94904.63;;;;
2019/06/19 04:07:47;;;;;;;5.5;3.8;;;;;;;17.15;68.54395;94904.63;;;;
2019/06/19 04:08:48;;;;;;;5.5;3.8;;;;;;;17.15;68.54395;94904.63;;;;
2019/06/19 04:09:49;;;;;;;5.5;3.8;;;;;;;17.15;68.54395;94904.63;;;;
2019/06/19 04:10:51;;;;;;;5.5;3.8;;;;;;;17.15;68.54395;94904.63;;;;
2019/06/19 04:11:52;;;;;;;5.5;3.8;;;;;;;17.15;68.54395;94904.63;;;;
2019/06/19 04:12:53;;;;;;;5.5;3.8;;;;;;;17.15;68.54395;94904.63;;;;
2019/06/19 04:13:54;;;;;;;5.5;3.8;;;;;;;17.15;68.54395;94904.63;;;;
2019/06/19 04:14:55;;;;;;;5.5;3.8;;;;;;;17.15;68.54395;94904.63;;;;
2019/06/19 04:15:56;;;;;;;5.5;3.8;;;;;;;17.15;68.54395;94904.63;;;;
2019/06/19 04:16:57;;;;;;;5.5;3.8;;;;;;;17.15;68.54395;94904.63;;;;
2019/06/19 04:17:58;;;;;;;5.05;4.149999;;;;;;;17.28;68.78223;94907.65;;;;
2019/06/19 04:18:59;;;;;;;5.05;4.149999;;;;;;;17.28;68.78223;94907.65;;;;
2019/06/19 04:20:00;;;;;;;5.05;4.149999;;;;;;;17.28;68.78223;94907.65;;;;
2019/06/19 04:21:01;;;;;;;5.05;4.149999;;;;;;;17.28;68.78223;94907.65;;;;
2019/06/19 04:22:02;;;;;;;5.05;4.149999;;;;;;;17.28;68.78223;94907.65;;;;
2019/06/19 04:23:03;;;;;;;5.05;4.149999;;;;;;;17.28;68.78223;94907.65;;;;
2019/06/19 04:24:04;;;;;;;5.05;4.149999;;;;;;;17.28;68.78223;94907.65;;;;
2019/06/19 04:25:06;;;;;;;5.05;4.149999;;;;;;;17.28;68.78223;94907.65;;;;
2019/06/19 04:26:07;;;;;;;5.05;4.149999;;;;;;;17.28;68.78223;94907.65;;;;
2019/06/19 04:27:08;;;;;;;5.05;4.149999;;;;;;;17.28;68.78223;94907.65;;;;
2019/06/19 04:28:25;;;;;;;4.4;4.1;;;;;;;17.51;68.97168;94906.92;;;;
2019/06/19 04:29:28;;;;;;;4.4;4.1;;;;;;;17.51;68.97168;94906.92;;;;
2019/06/19 04:30:30;;;;;;;4.4;4.1;;;;;;;17.51;68.97168;94906.92;;;;
2019/06/19 04:31:31;;;;;;;4.4;4.1;;;;;;;17.51;68.97168;94906.92;;;;
2019/06/19 04:32:32;;;;;;;4.4;4.1;;;;;;;17.51;68.97168;94906.92;;;;
2019/06/19 04:33:33;;;;;;;4.4;4.1;;;;;;;17.51;68.97168;94906.92;;;;
2019/06/19 04:34:34;;;;;;;4.4;4.1;;;;;;;17.51;68.97168;94906.92;;;;
2019/06/19 04:35:35;;;;;;;4.4;4.1;;;;;;;17.51;68.97168;94906.92;;;;
2019/06/19 04:36:36;;;;;;;4.4;4.1;;;;;;;17.51;68.97168;94906.92;;;;
2019/06/19 04:37:37;;;;;;;4.4;4.1;;;;;;;17.51;68.97168;94906.92;;;;
2019/06/19 04:38:38;;;;;;;4.1;3.4;;;;;;;17.74;69.07227;94912.96;;;;
2019/06/19 04:39:39;;;;;;;4.1;3.4;;;;;;;17.74;69.07227;94912.96;;;;
2019/06/19 04:40:40;;;;;;;4.1;3.4;;;;;;;17.74;69.07227;94912.96;;;;
2019/06/19 04:41:41;;;;;;;4.1;3.4;;;;;;;17.74;69.07227;94912.96;;;;
2019/06/19 04:42:42;;;;;;;4.1;3.4;;;;;;;17.74;69.07227;94912.96;;;;
2019/06/19 04:43:43;;;;;;;4.1;3.4;;;;;;;17.74;69.07227;94912.96;;;;
2019/06/19 04:44:44;;;;;;;4.1;3.4;;;;;;;17.74;69.07227;94912.96;;;;
2019/06/19 04:45:46;;;;;;;4.1;3.4;;;;;;;17.74;69.07227;94912.96;;;;
2019/06/19 04:46:47;;;;;;;4.1;3.4;;;;;;;17.74;69.07227;94912.96;;;;
2019/06/19 04:47:48;;;;;;;4.1;3.4;;;;;;;17.74;69.07227;94912.96;;;;
2019/06/19 04:48:49;;;;;;;4.1;3.4;;;;;;;17.74;69.07227;94912.96;;;;
2019/06/19 04:49:50;;;;;;;4.1;3.4;;;;;;;17.74;69.07227;94912.96;;;;
2019/06/19 04:50:51;;;;;;;4.1;3.4;;;;;;;17.74;69.07227;94912.96;;;;
2019/06/19 04:51:52;;;;;;;4.1;3.4;;;;;;;17.74;69.07227;94912.96;;;;
2019/06/19 04:52:53;;;;;;;4.1;3.4;;;;;;;17.74;69.07227;94912.96;;;;
2019/06/19 04:53:54;;;;;;;4.1;3.4;;;;;;;17.74;69.07227;94912.96;;;;
2019/06/19 04:54:55;;;;;;;4.1;3.4;;;;;;;17.74;69.07227;94912.96;;;;
2019/06/19 04:55:56;;;;;;;4.1;3.4;;;;;;;17.74;69.07227;94912.96;;;;
2019/06/19 04:56:57;;;;;;;4.1;3.4;;;;;;;17.74;69.07227;94912.96;;;;
2019/06/19 04:57:58;;;;;;;4.1;3.4;;;;;;;17.74;69.07227;94912.96;;;;
2019/06/19 04:58:59;;;;;;;4.1;3.4;;;;;;;17.74;69.07227;94912.96;;;;
2019/06/19 05:00:01;;;;;;;4.35;3.5;;;;;;;18.46;68.22266;94911.44;;;;
2019/06/19 05:01:03;;;;;;;4.35;3.5;;;;;;;18.46;68.22266;94911.44;;;;
2019/06/19 05:02:04;;;;;;;4.35;3.5;;;;;;;18.46;68.22266;94911.44;;;;
2019/06/19 05:03:05;;;;;;;4.35;3.5;;;;;;;18.46;68.22266;94911.44;;;;
2019/06/19 05:04:06;;;;;;;4.35;3.5;;;;;;;18.46;68.22266;94911.44;;;;
2019/06/19 05:05:07;;;;;;;4.35;3.5;;;;;;;18.46;68.22266;94911.44;;;;
2019/06/19 05:06:08;;;;;;;4.35;3.5;;;;;;;18.46;68.22266;94911.44;;;;
2019/06/19 05:07:09;;;;;;;4.35;3.5;;;;;;;18.46;68.22266;94911.44;;;;
2019/06/19 05:08:10;;;;;;;4.35;3.5;;;;;;;18.46;68.22266;94911.44;;;;
2019/06/19 05:09:17;;;;;;;4.35;3.5;;;;;;;18.46;68.22266;94911.44;;;;
2019/06/19 05:10:18;;;;;;;4.35;3.5;;;;;;;18.46;68.22266;94911.44;;;;
2019/06/19 05:11:19;;;;;;;4.35;3.5;;;;;;;18.46;68.22266;94911.44;;;;
2019/06/19 05:12:20;;;;;;;4.35;3.5;;;;;;;18.46;68.22266;94911.44;;;;
2019/06/19 05:13:22;;;;;;;4.35;3.5;;;;;;;18.46;68.22266;94911.44;;;;
2019/06/19 05:14:23;;;;;;;4.35;3.5;;;;;;;18.46;68.22266;94911.44;;;;
2019/06/19 05:15:24;;;;;;;4.35;3.5;;;;;;;18.46;68.22266;94911.44;;;;
2019/06/19 05:16:25;;;;;;;4.35;3.5;;;;;;;18.46;68.22266;94911.44;;;;
2019/06/19 05:17:26;;;;;;;4.35;3.5;;;;;;;18.46;68.22266;94911.44;;;;
2019/06/19 05:18:27;;;;;;;4.35;3.5;;;;;;;18.46;68.22266;94911.44;;;;
2019/06/19 05:19:28;;;;;;;4.35;3.5;;;;;;;18.46;68.22266;94911.44;;;;
2019/06/19 05:20:29;;;;;;;4.35;3.5;;;;;;;18.46;68.22266;94911.44;;;;
2019/06/19 05:21:30;;;;;;;3.7;3;;;;;;;19.35;66.57617;94906.7;;;;
2019/06/19 05:22:31;;;;;;;3.7;3;;;;;;;19.35;66.57617;94906.7;;;;
2019/06/19 05:23:32;;;;;;;3.7;3;;;;;;;19.35;66.57617;94906.7;;;;
2019/06/19 05:24:33;;;;;;;3.7;3;;;;;;;19.35;66.57617;94906.7;;;;
2019/06/19 05:25:34;;;;;;;3.7;3;;;;;;;19.35;66.57617;94906.7;;;;
2019/06/19 05:26:35;;;;;;;3.7;3;;;;;;;19.35;66.57617;94906.7;;;;
2019/06/19 05:27:36;;;;;;;3.7;3;;;;;;;19.35;66.57617;94906.7;;;;
2019/06/19 05:28:37;;;;;;;3.7;3;;;;;;;19.35;66.57617;94906.7;;;;
2019/06/19 05:29:38;;;;;;;3.7;3;;;;;;;19.35;66.57617;94906.7;;;;
2019/06/19 05:30:39;;;;;;;3.7;3;;;;;;;19.35;66.57617;94906.7;;;;
2019/06/19 05:31:41;;;;;;;3.85;2.9;;;;;;;19.89;65.61523;94906.56;;;;
2019/06/19 05:32:42;;;;;;;3.85;2.9;;;;;;;19.89;65.61523;94906.56;;;;
2019/06/19 05:33:43;;;;;;;3.85;2.9;;;;;;;19.89;65.61523;94906.56;;;;
2019/06/19 05:34:44;;;;;;;3.85;2.9;;;;;;;19.89;65.61523;94906.56;;;;
2019/06/19 05:35:45;;;;;;;3.85;2.9;;;;;;;19.89;65.61523;94906.56;;;;
2019/06/19 05:36:46;;;;;;;3.85;2.9;;;;;;;19.89;65.61523;94906.56;;;;
2019/06/19 05:37:47;;;;;;;3.85;2.9;;;;;;;19.89;65.61523;94906.56;;;;
2019/06/19 05:38:48;;;;;;;3.85;2.9;;;;;;;19.89;65.61523;94906.56;;;;
2019/06/19 05:39:49;;;;;;;3.85;2.9;;;;;;;19.89;65.61523;94906.56;;;;
2019/06/19 05:40:50;;;;;;;3.85;2.9;;;;;;;19.89;65.61523;94906.56;;;;
2019/06/19 05:41:51;;;;;;;3.85;2.9;;;;;;;19.89;65.61523;94906.56;;;;
2019/06/19 05:42:52;;;;;;;3.85;2.9;;;;;;;19.89;65.61523;94906.56;;;;
2019/06/19 05:43:54;;;;;;;3.85;2.9;;;;;;;19.89;65.61523;94906.56;;;;
2019/06/19 05:44:55;;;;;;;3.85;2.9;;;;;;;19.89;65.61523;94906.56;;;;
2019/06/19 05:45:56;;;;;;;3.85;2.9;;;;;;;19.89;65.61523;94906.56;;;;
2019/06/19 05:46:57;;;;;;;3.85;2.9;;;;;;;19.89;65.61523;94906.56;;;;
2019/06/19 05:47:58;;;;;;;3.85;2.9;;;;;;;19.89;65.61523;94906.56;;;;
2019/06/19 05:48:59;;;;;;;3.85;2.9;;;;;;;19.89;65.61523;94906.56;;;;
2019/06/19 05:50:00;;;;;;;3.85;2.9;;;;;;;19.89;65.61523;94906.56;;;;
2019/06/19 05:51:01;;;;;;;3.85;2.9;;;;;;;19.89;65.61523;94906.56;;;;
2019/06/19 05:52:02;;;;;;;3.85;2.9;;;;;;;19.89;65.61523;94906.56;;;;
2019/06/19 05:53:03;;;;;;;3.5;3.2;;;;;;;20.99;64.00781;94913.45;;;;
2019/06/19 05:54:04;;;;;;;3.5;3.2;;;;;;;20.99;64.00781;94913.45;;;;
2019/06/19 05:55:05;;;;;;;3.5;3.2;;;;;;;20.99;64.00781;94913.45;;;;
2019/06/19 05:56:06;;;;;;;3.5;3.2;;;;;;;20.99;64.00781;94913.45;;;;
2019/06/19 05:57:07;;;;;;;3.5;3.2;;;;;;;20.99;64.00781;94913.45;;;;